Aviation Digital Data Service (ADDS)

Output produced by METARs form (1021 UTC 19 January 2019)
found at http://www.aviationweather.gov/metar/data/
 
KAIT 191015Z AUTO 34004KT 10SM CLR M27/M31 A3040 RMK AO2
KAXN 190953Z AUTO 36007KT 10SM CLR M22/M28 A3039 RMK AO2 SLP333 T12171278
KAXN 190923Z 1909/2006 35005KT P6SM FEW250 
     FM192000 33006KT P6SM FEW250
       
KAQP 191013Z AUTO 33006KT 10SM CLR M22/M26 A3045 RMK AO2
KAUM 191016Z AUTO 01009KT 10SM -SN SCT029 120 M13/M18 A3025 RMK AO2
KBDE 190953Z AUTO 00000KT 10SM CLR M34/ A3042 RMK AO2 SLP351 T1344
KBJI 191016Z AUTO 00000KT 10SM CLR M33/M36 A3041 RMK AO2 T13311365
KBJI 190520Z 1906/2006 VRB03KT P6SM FEW250
       
KBBB 191015Z AUTO 03004KT 10SM CLR M22/M26 A3043 RMK AO2
KFOZ 191013Z AUTO 00000KT 10SM M36/M39 A3040 RMK AO2
KBRD 190953Z AUTO 36005KT 9SM BKN110 M23/M30 A3041 RMK AO2 SLP340 T12331300
KBRD 190538Z 1906/2006 01006KT P6SM SCT100 
     FM191600 33006KT P6SM FEW150 
     FM200200 01003KT P6SM FEW150
       
KCBG 191015Z AUTO 34006KT 10SM CLR M19/M26 A3040 RMK AO2
KCNB 191015Z AUTO 27009KT 10SM CLR M23/M26 A3044 RMK AO2 T12301260
KCOQ 190721Z AUTO 32008KT 10SM CLR M24/M29 A3038 RMK AO2
KCQM 191015Z AUTO 00000KT CLR M36/M39 A3039 RMK AO2 PWINO
KCKN 191015Z AUTO 00000KT 10SM CLR M30/M33 A3053 RMK AO2
KDTL 191016Z AUTO 00000KT 10SM CLR M25/M27 A3042 RMK AO2
KTOB 191015Z AUTO 36010KT 10SM SCT014 BKN022 OVC110 M16/M18 A3026 RMK AO2
KDLH 190955Z 35010KT 10SM SCT013 M23/M28 A3034 RMK AO2 SLP321 T12281283
KDLH 190749Z 1908/2006 35008KT P6SM BKN015 
     TEMPO 1909/1911 SCT020 
     FM191100 34006KT P6SM SCT019 
     FM191500 33007KT P6SM FEW150
       
KDYT 191016Z AUTO 10SM CLR M21/M25 A3044 RMK AO2
KY63 191016Z AUTO 35005KT 10SM CLR M23/M27 A3044 RMK AO2 T12351266
KELO 191016Z AUTO 00000KT 10SM CLR M36/M41 A3038 RMK AO2 TSNO
KEVM 191016Z AUTO 00000KT 10SM CLR M33/M36 A3039 RMK AO2 T13321358
KFRM 190956Z AUTO 34013KT 9SM -SN CLR M18/M20 A3032 RMK AO2 SLP302 P0000 T11781200 FZRANO
KFFM 191016Z AUTO 01004KT 10SM CLR M24/M28 A3047 RMK AO2
KFSE 191015Z AUTO 00000KT 10SM CLR M33/M36 A3044 RMK AO2
KGYL 191016Z AUTO 35006KT 10SM CLR M17/M22 A3036 RMK AO2 T11751216
KGHW 191015Z AUTO 35006KT 10SM CLR M23/M27 A3040 RMK AO2
KCKC 191016Z AUTO 35004KT 10SM BKN017 M29/M36 A3028 RMK AO2
KGPZ 190956Z AUTO 00000KT 10SM CLR M31/M34 A3042 RMK AO2 SLP356 T13061344 FZRANO
KGDB 191015Z AUTO 31006KT 10SM CLR M21/M25 A3043 RMK AO2 T12071247
KHCO 191015Z AUTO 00000KT 10SM M31/M34 A3050 RMK AO2
KHIB 190953Z AUTO 00000KT 10SM CLR M32/M34 A3039 RMK AO2 SLP344 T13221339
KHIB 190538Z 1906/2006 35004KT P6SM FEW150 
     FM191800 33007KT P6SM FEW150 
     FM200200 35003KT P6SM FEW150
       
KHCD 191015Z AUTO 34008KT 10SM CLR M18/M22 A3037 RMK AO2 T11851225
KINL 190955Z AUTO 00000KT 10SM CLR M36/ A3044 RMK AO2 SLP359 T1356 $
KINL 190538Z 1906/2006 VRB02KT P6SM FEW007 
     FM191600 30005KT P6SM FEW150 
     FM200200 VRB03KT P6SM FEW150
       
KMJQ 191015Z AUTO 35009KT 10SM SCT085 M19/M22 A3030 RMK AO2
KLJF 191016Z AUTO 36007KT 10SM CLR M19/M23 A3038 RMK AO2
KLXL 191016Z AUTO 35003KT 10SM CLR M22/M27 A3042 RMK AO2
K14Y 191016Z AUTO 36004KT 10SM CLR M23/M27 A3039 RMK AO2
KXVG 191014Z AUTO 00000KT 10SM CLR M30/M33 A3041 RMK AO2
KLYV 191016Z AUTO 01006KT 10SM OVC090 M18/M22 A3035 RMK AO2
KDXX 191016Z AUTO 32008KT 10SM CLR M22/M26 A3045 RMK AO2
K3N8 191015Z AUTO 00000KT 10SM CLR M28/M31 A3044 RMK AO2 T12821310
KMKT 190956Z AUTO 36009KT 9SM -SN CLR M18/M21 A3035 RMK AO2 SLP305 P0000 T11781206 FZRANO
KMKT 190925Z 1909/2006 36010KT P6SM BKN100 
     FM191200 35009KT P6SM SKC
       
KMML 190956Z AUTO 33014KT 10SM CLR M22/M25 A3041 RMK AO2 SLP334 T12221250 FZRANO
KHZX 191015Z AUTO 34004KT 10SM CLR M25/M29 A3040 RMK AO2
KLVN 190956Z AUTO 36006KT 10SM CLR M16/M19 A3034 RMK AO2
KANE 191015Z AUTO 01008KT 10SM CLR M17/M22 A3037 RMK AO2
KMIC 190953Z AUTO 36010KT 10SM CLR M17/M23 A3037 RMK AO2 SLP308 T11721228
KFCM 190953Z AUTO 36006KT 10SM CLR M17/M22 A3034 RMK AO2 SLP299 T11671222
KMSP 190953Z 02009KT 10SM FEW070 M17/M21 A3036 RMK AO2 SLP304 T11671211
KMSP 190846Z 1909/2012 36008KT P6SM SCT080 
     FM192000 33007KT P6SM SKC
       
KMVE 191015Z AUTO 35006KT 10SM CLR M22/M27 A3043 RMK AO2
KJKJ 191015Z AUTO 34003KT 10SM CLR M26/M29 A3051 RMK AO2
KMZH 191015Z AUTO 36003KT 10SM CLR M24/M30 A3038 RMK AO2
KJMR 191015Z AUTO 35004KT 10SM CLR M21/M27 A3042 RMK AO2
KMOX 191015Z AUTO 34008KT 10SM CLR M24/M29 A3045 RMK AO2
KULM 191015Z AUTO 34009KT CLR M18/M23 A3036 RMK AO2 PWINO
KOVL 191015Z AUTO 34008KT 10SM CLR M21/M24 A3040 RMK AO2
KORB 191014Z AUTO 00000KT 10SM CLR M35/M39 A3036 RMK AO2
KVVV 191016Z AUTO 33008KT 10SM CLR M24/M27 A3044 RMK AO2
KOWA 191016Z AUTO 36008KT A3030 RMK AO2 PWINO
KPKD 190953Z AUTO 32003KT 10SM BKN110 M27/M30 A3039 RMK AO2 SLP344 T12671300
KPEX 191016Z AUTO 36007KT 10SM CLR M21/M24 A3040 RMK AO2 T12061245
KPWC 191015Z AUTO 00000KT 10SM CLR M27/M31 A3043 RMK AO2
KPQN 191016Z AUTO 03005KT M23/M25 A3031 RMK AO2 PWINO
KFKA 191015Z AUTO 02010KT M13/M15 A3023 RMK AO2 T11331155 PWINO
KPNM 191016Z AUTO 34005KT 10SM CLR M19/M24 A3039 RMK AO2
KRGK 191016Z AUTO 00000KT 10SM SCT055 OVC065 M14/M20 A3033 RMK AO2
KRWF 190953Z AUTO 33007KT 10SM CLR M19/M24 A3039 RMK AO2 SLP319 T11941239
KRWF 190923Z 1909/2006 34007KT P6SM FEW250 
     FM191800 32008KT P6SM SCT250
       
KRST 190954Z 01014KT 6SM -SN BR BKN037 OVC120 M14/M16 A3025 RMK AO2 SLP275 P0000 T11391156
KRST 191003Z 1910/2006 01014KT 6SM -SN BKN035 
     FM191130 01012KT P6SM SCT035 
     FM191300 36012KT P6SM SKC 
     FM200000 34008KT P6SM SKC
       
KROX 191016Z AUTO 00000KT 10SM CLR M32/M35 A3046 RMK AO2
KROS 191016Z AUTO 34004KT 10SM OVC110 M20/M25 A3040 RMK AO2 T12011252
KSTC 190953Z AUTO 34007KT 10SM CLR M20/M26 A3040 RMK AO2 SLP332 T12001256
KSTC 190924Z 1909/2006 35006KT P6SM FEW150 
     FM192100 33006KT P6SM SKC
       
KJYG 191016Z AUTO 32009KT 10SM M21/M23 A3036 RMK AO2
KSTP 190953Z AUTO 35008G15KT 10SM FEW080 M17/M22 A3039 RMK AO2 SLP305 T11671217
KD39 191016Z AUTO 35004KT 10SM CLR M22/M27 A3040 RMK AO2 T12251267
KBFW 191015Z AUTO 00000KT 10SM BKN031 M24/M30 A3035 RMK AO2
KDVP 191008Z AUTO 34015KT 10SM CLR M21/M24 A3032 RMK AO2 T12151240
KSGS 191015Z AUTO 36006KT 10SM SCT065 M16/M21 A3037 RMK AO2 T11591210
KSAZ 191015Z AUTO 33004KT 10SM SCT110 M27/M30 A3041 RMK AO2
KTVF 190956Z AUTO 00000KT 10SM CLR M33/M36 A3048 RMK AO2 SLP371 T13281356 FZRANO
KTVF 190520Z 1906/2006 VRB03KT P6SM FEW250
       
KTKC 191015Z AUTO 33013KT 10SM CLR M21/M24 A3037 RMK AO2 T12151240
KTWM 191016Z AUTO 34005KT 10SM OVC022 M22/M29 A3034 RMK AO2
KADC 191015Z AUTO 35006KT 10SM CLR M26/M29 A3040 RMK AO2
KY49 190955Z AUTO 28003KT 10SM CLR M31/M34 A3042 RMK AO2 T13101340
KRRT 191015Z AUTO 27004KT 10SM CLR M32/M35 A3045 RMK AO2
KACQ 191016Z AUTO 35008KT 10SM -SN CLR M16/M19 A3032 RMK AO2
KETH 191018Z AUTO 32008KT 10SM CLR M24/M28 A3049 RMK AO2
KBDH 191016Z AUTO 33006KT 10SM CLR M21/M25 A3041 RMK AO2
KMWM 191015Z AUTO 34008KT 10SM CLR M21/M24 A3031 RMK AO2
KONA 191016Z AUTO 00000KT 10SM BKN019 BKN026 BKN050 M11/M14 A3032 RMK AO2
KOTG 190956Z AUTO 36014KT 10SM CLR M19/M22 A3031 RMK AO2 SNB05E16 SLP309 P0000 T11941222 FZRANO